createdAt,value
2022-12-06T00:04:34.556Z,99.59
2022-12-06T00:10:06.272Z,99.9
2022-12-06T00:15:37.940Z,99.77
2022-12-06T00:21:09.681Z,99.57
2022-12-06T00:26:41.361Z,99.45
2022-12-06T00:32:19.902Z,99.34
2022-12-06T00:37:44.741Z,98.96
2022-12-06T00:43:16.533Z,98.33
2022-12-06T00:48:48.401Z,98.15
2022-12-06T00:54:24.265Z,98.17
2022-12-06T00:59:56.009Z,97.98
2022-12-06T01:05:27.766Z,98.34
2022-12-06T01:10:59.444Z,98.47
2022-12-06T01:16:31.303Z,98.66
2022-12-06T01:22:02.881Z,98.81
2022-12-06T01:27:34.598Z,99.15
2022-12-06T01:33:06.313Z,99.01
2022-12-06T01:38:38.101Z,98.95
2022-12-06T01:44:09.790Z,99.47
2022-12-06T01:49:41.482Z,99.55
2022-12-06T01:55:17.620Z,100.0
2022-12-06T02:00:49.429Z,99.45
2022-12-06T02:06:21.557Z,99.74
2022-12-06T02:11:52.960Z,99.65
2022-12-06T02:17:24.523Z,99.6
2022-12-06T02:22:56.204Z,99.14
2022-12-06T02:28:28.026Z,98.72
2022-12-06T02:33:59.797Z,98.68
2022-12-06T02:39:31.517Z,99.58
2022-12-06T02:45:03.170Z,99.32
2022-12-06T02:50:34.932Z,99.51
2022-12-06T02:56:11.038Z,100.0
2022-12-06T03:01:42.861Z,100.0
2022-12-06T03:07:14.482Z,99.31
2022-12-06T03:12:46.293Z,98.85
2022-12-06T03:18:18.024Z,99.3
2022-12-06T03:23:49.697Z,99.7
2022-12-06T03:29:21.333Z,100.0
2022-12-06T03:34:53.079Z,100.0
2022-12-06T03:40:24.714Z,100.0
2022-12-06T03:45:56.681Z,100.0
2022-12-06T03:51:28.257Z,100.0
2022-12-06T03:57:06.345Z,99.61
2022-12-06T04:02:38.035Z,100.0
2022-12-06T04:08:09.902Z,99.99
2022-12-06T04:13:41.505Z,100.0
2022-12-06T04:19:13.199Z,100.0
2022-12-06T04:24:44.784Z,100.0
2022-12-06T04:30:16.597Z,100.0
2022-12-06T04:35:48.446Z,100.0
2022-12-06T04:41:20.205Z,100.0
2022-12-06T04:46:52.090Z,100.0
2022-12-06T04:52:23.657Z,100.0
2022-12-06T04:57:59.755Z,100.0
2022-12-06T05:03:31.632Z,100.0
2022-12-06T05:09:03.176Z,100.0
2022-12-06T05:14:34.940Z,99.55
2022-12-06T05:20:06.713Z,99.88
2022-12-06T05:25:38.332Z,99.98
2022-12-06T05:31:10.166Z,99.87
2022-12-06T05:36:41.840Z,99.8
2022-12-06T05:42:22.637Z,99.38
2022-12-06T05:47:45.474Z,99.51
2022-12-06T05:53:16.932Z,99.66
2022-12-06T05:58:53.005Z,99.9
2022-12-06T06:04:24.748Z,100.0
2022-12-06T06:09:56.789Z,100.0
2022-12-06T06:15:28.216Z,100.0
2022-12-06T06:20:59.908Z,99.83
2022-12-06T06:26:31.865Z,99.99
2022-12-06T06:32:03.395Z,99.82
2022-12-06T06:37:35.074Z,99.68
2022-12-06T06:43:07.620Z,100.0
2022-12-06T06:48:38.601Z,100.0
2022-12-06T06:54:10.247Z,100.0
2022-12-06T06:59:46.401Z,100.0
2022-12-06T07:05:18.593Z,100.0
2022-12-06T07:10:50.017Z,100.0
2022-12-06T07:16:21.863Z,100.0
2022-12-06T07:21:53.353Z,100.0
2022-12-06T07:27:25.150Z,100.0
2022-12-06T07:32:56.871Z,99.73
2022-12-06T07:38:28.526Z,99.93
2022-12-06T07:44:00.237Z,99.59
2022-12-06T07:49:32.084Z,100.0
2022-12-06T07:55:03.768Z,99.41
2022-12-06T08:00:39.842Z,99.8
2022-12-06T08:06:11.580Z,99.44
2022-12-06T08:11:43.255Z,99.87
2022-12-06T08:17:15.012Z,100.0
2022-12-06T08:22:47.006Z,100.0
2022-12-06T08:28:18.388Z,100.0
2022-12-06T08:33:50.195Z,100.0
2022-12-06T08:39:22.436Z,100.0
2022-12-06T08:44:53.579Z,100.0
2022-12-06T08:50:25.248Z,100.0
2022-12-06T08:56:03.103Z,100.0
2022-12-06T09:01:38.674Z,100.0
2022-12-06T09:07:11.765Z,100.0
2022-12-06T09:12:36.657Z,100.0
2022-12-06T09:18:08.464Z,100.0
2022-12-06T09:23:40.072Z,100.0
2022-12-06T09:29:14.545Z,100.0
2022-12-06T09:34:43.749Z,100.0
2022-12-06T09:40:15.358Z,100.0
2022-12-06T09:45:47.072Z,100.0
2022-12-06T09:51:19.516Z,100.0
2022-12-06T09:56:50.482Z,100.0
2022-12-06T10:02:28.800Z,100.0
2022-12-06T10:08:00.647Z,100.0
2022-12-06T10:13:32.064Z,100.0
2022-12-06T10:19:04.303Z,100.0
2022-12-06T10:24:35.544Z,100.0
2022-12-06T10:30:07.395Z,100.0
2022-12-06T10:35:38.936Z,100.0
2022-12-06T10:41:10.834Z,100.0
2022-12-06T10:46:43.159Z,100.0
2022-12-06T10:52:14.090Z,100.0
2022-12-06T10:57:45.737Z,100.0
2022-12-06T11:03:22.803Z,100.0
2022-12-06T11:08:53.619Z,100.0
2022-12-06T11:14:25.416Z,100.0
2022-12-06T11:19:57.556Z,100.0
2022-12-06T11:25:28.904Z,100.0
2022-12-06T11:31:00.883Z,100.0
2022-12-06T11:36:32.670Z,100.0
2022-12-06T11:42:04.319Z,100.0
2022-12-06T11:47:35.954Z,100.0
2022-12-06T11:53:08.636Z,100.0
2022-12-06T11:58:39.627Z,100.0
2022-12-06T12:04:18.556Z,100.0
2022-12-06T12:09:49.900Z,100.0
2022-12-06T12:15:21.312Z,100.0
2022-12-06T12:20:53.925Z,100.0
2022-12-06T12:26:24.760Z,100.0
2022-12-06T12:31:56.686Z,100.0
2022-12-06T12:37:28.297Z,100.0
2022-12-06T12:42:59.893Z,100.0
2022-12-06T12:48:31.660Z,100.0
2022-12-06T12:54:03.429Z,100.0
2022-12-06T12:59:35.204Z,100.0
2022-12-06T13:05:34.501Z,100.0
2022-12-06T13:10:42.955Z,100.0
2022-12-06T13:16:14.925Z,100.0
2022-12-06T13:21:46.330Z,100.0
2022-12-06T13:27:18.082Z,100.0
2022-12-06T13:32:49.797Z,100.0
2022-12-06T13:38:27.261Z,100.0
2022-12-06T13:43:53.132Z,100.0
2022-12-06T13:49:24.961Z,100.0
2022-12-06T13:54:56.679Z,100.0
2022-12-06T14:00:28.644Z,100.0
2022-12-06T14:06:15.602Z,100.0
2022-12-06T14:11:40.313Z,100.0
2022-12-06T14:17:08.261Z,100.0
2022-12-06T14:22:39.723Z,100.0
2022-12-06T14:28:11.470Z,100.0
2022-12-06T14:33:43.226Z,100.0
2022-12-06T14:39:14.922Z,100.0
2022-12-06T14:44:46.597Z,100.0
2022-12-06T14:50:18.343Z,100.0
2022-12-06T14:55:50.085Z,100.0
2022-12-06T15:01:21.796Z,100.0
2022-12-06T15:06:58.001Z,100.0
2022-12-06T15:12:29.734Z,100.0
2022-12-06T15:18:01.532Z,100.0
2022-12-06T15:23:33.255Z,100.0
2022-12-06T15:29:04.957Z,100.0
2022-12-06T15:34:36.691Z,100.0
2022-12-06T15:40:08.452Z,100.0
2022-12-06T15:45:40.114Z,100.0
2022-12-06T15:51:20.503Z,100.0
2022-12-06T15:56:43.473Z,99.58
2022-12-06T16:02:15.521Z,100.0
2022-12-06T16:07:53.417Z,100.0
2022-12-06T16:13:25.066Z,100.0
2022-12-06T16:18:56.789Z,100.0
2022-12-06T16:24:28.584Z,100.0
2022-12-06T16:30:00.897Z,100.0
2022-12-06T16:35:31.945Z,100.0
2022-12-06T16:41:05.608Z,100.0
2022-12-06T16:46:36.183Z,100.0
2022-12-06T16:52:07.208Z,100.0
2022-12-06T16:57:38.968Z,100.0
2022-12-06T17:03:10.776Z,100.0
2022-12-06T17:08:47.458Z,99.37
2022-12-06T17:14:18.612Z,99.71
2022-12-06T17:19:50.549Z,99.86
2022-12-06T17:25:21.992Z,99.84
2022-12-06T17:30:53.809Z,99.93
2022-12-06T17:36:26.171Z,100.0
2022-12-06T17:41:57.496Z,100.0
2022-12-06T17:47:29.012Z,99.91
2022-12-06T17:53:00.696Z,99.78
2022-12-06T17:58:32.423Z,100.0
2022-12-06T18:04:04.711Z,100.0
2022-12-06T18:09:40.780Z,100.0
2022-12-06T18:15:12.679Z,100.0
2022-12-06T18:20:44.183Z,100.0
2022-12-06T18:26:15.904Z,100.0
2022-12-06T18:31:47.851Z,99.45
2022-12-06T18:37:20.249Z,99.13
2022-12-06T18:42:52.238Z,99.52
2022-12-06T18:48:23.932Z,99.66
2022-12-06T18:53:55.276Z,99.48
2022-12-06T18:59:28.380Z,99.02
2022-12-06T19:04:59.882Z,99.14
2022-12-06T19:10:38.941Z,99.44
2022-12-06T19:16:10.812Z,99.21
2022-12-06T19:21:42.545Z,99.83
2022-12-06T19:27:14.162Z,99.33
2022-12-06T19:32:45.864Z,99.12
2022-12-06T19:38:17.725Z,99.06
2022-12-06T19:43:49.438Z,99.22
2022-12-06T19:49:21.069Z,99.79
2022-12-06T19:54:52.866Z,99.94
2022-12-06T20:00:24.617Z,99.32
2022-12-06T20:05:56.469Z,100.0
2022-12-06T20:11:32.357Z,99.97
2022-12-06T20:17:04.096Z,100.0
2022-12-06T20:22:35.733Z,100.0
2022-12-06T20:28:13.918Z,100.0
2022-12-06T20:33:39.324Z,100.0
2022-12-06T20:39:10.925Z,100.0
2022-12-06T20:44:42.864Z,100.0
2022-12-06T20:50:14.369Z,100.0
2022-12-06T20:55:46.024Z,100.0
2022-12-06T21:01:17.863Z,100.0
2022-12-06T21:06:49.364Z,100.0
2022-12-06T21:12:27.021Z,100.0
2022-12-06T21:17:57.210Z,100.0
2022-12-06T21:23:28.953Z,100.0
2022-12-06T21:29:00.654Z,100.0
2022-12-06T21:34:32.634Z,100.0
2022-12-06T21:40:05.033Z,100.0
2022-12-06T21:45:36.037Z,100.0
2022-12-06T21:51:07.697Z,100.0
2022-12-06T21:56:39.673Z,100.0
2022-12-06T22:02:11.564Z,100.0
2022-12-06T22:07:43.483Z,100.0
2022-12-06T22:13:19.144Z,100.0
2022-12-06T22:18:50.899Z,100.0
2022-12-06T22:24:22.797Z,100.0
2022-12-06T22:29:54.407Z,100.0
2022-12-06T22:35:26.152Z,100.0
2022-12-06T22:40:57.857Z,100.0
2022-12-06T22:46:29.725Z,100.0
2022-12-06T22:52:01.477Z,100.0
2022-12-06T22:57:33.084Z,100.0
2022-12-06T23:03:04.928Z,100.0
2022-12-06T23:08:36.636Z,100.0
2022-12-06T23:14:12.557Z,100.0
2022-12-06T23:19:44.268Z,100.0
2022-12-06T23:25:16.060Z,100.0
2022-12-06T23:30:47.740Z,100.0
2022-12-06T23:36:19.536Z,100.0
2022-12-06T23:41:51.165Z,100.0
2022-12-06T23:47:22.933Z,100.0
2022-12-06T23:52:54.563Z,100.0
2022-12-06T23:58:26.351Z,100.0
